Time;durP1;ratioP1;P1;durP2;ratioP2;P2;SDS_P1;SDS_P2;PMS_P1;PMS_P2;Temp;Humidity;BMP_temperature;BMP_pressure;BME280_temperature;BME280_humidity;BME280_pressure;Samples;Min_cycle;Max_cycle;Signal;HPM_P1;HPM_P2
2021/12/27 00:00:23;;;;;;;14.95;9.25;;;-1.20;99.90;;;;;;5093241;28;20051;-75
2021/12/27 00:02:51;;;;;;;13.50;8.35;;;-1.30;99.90;;;;;;5075078;28;20099;-75
2021/12/27 00:05:17;;;;;;;13.48;8.30;;;-1.20;99.90;;;;;;5074850;28;20482;-75
2021/12/27 00:07:47;;;;;;;12.63;8.02;;;-1.30;99.90;;;;;;5054288;28;20064;-75
2021/12/27 00:10:13;;;;;;;14.30;9.02;;;-1.30;99.90;;;;;;5071605;28;20051;-75
2021/12/27 00:12:39;;;;;;;17.65;10.07;;;-1.30;99.90;;;;;;5071244;28;20495;-75
2021/12/27 00:15:05;;;;;;;18.23;9.43;;;-1.30;99.90;;;;;;5071451;28;20101;-75
2021/12/27 00:17:31;;;;;;;16.75;8.85;;;-1.30;99.90;;;;;;5071766;28;20074;-75
2021/12/27 00:19:57;;;;;;;15.65;9.68;;;-1.30;99.90;;;;;;5072496;28;20080;-75
2021/12/27 00:22:23;;;;;;;16.15;9.63;;;-1.30;99.90;;;;;;5071009;28;20032;-75
2021/12/27 00:24:48;;;;;;;19.88;9.02;;;-1.30;99.90;;;;;;5071321;28;20530;-75
2021/12/27 00:27:16;;;;;;;14.90;8.80;;;-1.30;99.90;;;;;;5054088;28;20059;-75
2021/12/27 00:29:43;;;;;;;13.75;8.27;;;-1.30;99.90;;;;;;5070917;28;20044;-75
2021/12/27 00:32:09;;;;;;;14.30;9.35;;;-1.40;99.90;;;;;;5069805;28;20044;-75
2021/12/27 00:34:38;;;;;;;13.18;9.40;;;-1.40;99.90;;;;;;5036907;28;20053;-75
2021/12/27 00:37:08;;;;;;;16.08;9.52;;;-1.40;99.90;;;;;;5049991;28;20048;-75
2021/12/27 00:39:34;;;;;;;12.93;8.60;;;-1.40;99.90;;;;;;5033644;28;20071;-75
2021/12/27 00:42:00;;;;;;;14.68;9.98;;;-1.50;99.90;;;;;;5050177;28;20041;-75
2021/12/27 00:44:26;;;;;;;17.30;9.68;;;-1.50;99.90;;;;;;5050890;28;20055;-75
2021/12/27 00:46:53;;;;;;;17.23;10.40;;;-1.50;99.90;;;;;;5049775;28;20045;-75
2021/12/27 00:49:19;;;;;;;16.38;9.52;;;-1.60;99.90;;;;;;5049912;28;20131;-75
2021/12/27 00:51:44;;;;;;;14.38;9.10;;;-1.60;99.90;;;;;;5049792;28;20148;-75
2021/12/27 00:54:10;;;;;;;16.00;9.40;;;-1.60;99.90;;;;;;5049461;28;20040;-75
2021/12/27 00:56:36;;;;;;;15.18;9.45;;;-1.60;99.90;;;;;;5033403;28;20083;-75
2021/12/27 00:59:01;;;;;;;14.80;8.75;;;-1.70;99.90;;;;;;5049914;28;20049;-75
2021/12/27 01:01:27;;;;;;;15.30;8.77;;;-1.70;99.90;;;;;;5049230;28;20533;-75
2021/12/27 01:03:53;;;;;;;15.65;9.60;;;-1.70;99.90;;;;;;5032506;28;20056;-75
2021/12/27 01:06:18;;;;;;;15.60;9.93;;;-1.60;99.90;;;;;;5050309;28;20126;-75
2021/12/27 01:08:44;;;;;;;15.30;9.82;;;-1.70;99.90;;;;;;5070932;28;20052;-75
2021/12/27 01:11:22;;;;;;;16.98;10.77;;;-1.70;99.90;;;;;;5070127;28;20044;-75
2021/12/27 01:14:00;;;;;;;13.57;9.55;;;-1.70;99.90;;;;;;5036258;28;20099;-75
2021/12/27 01:16:26;;;;;;;14.75;8.80;;;-1.70;99.90;;;;;;5035923;28;20562;-75
2021/12/27 01:18:52;;;;;;;14.70;9.10;;;-1.70;99.90;;;;;;5052760;28;20037;-75
2021/12/27 01:21:20;;;;;;;15.98;9.48;;;-1.70;99.90;;;;;;5052799;28;20101;-75
2021/12/27 01:23:46;;;;;;;15.43;9.93;;;-1.60;99.90;;;;;;5052349;28;20432;-75
2021/12/27 01:26:12;;;;;;;14.25;8.75;;;-1.60;99.90;;;;;;5035925;28;20510;-75
2021/12/27 01:28:39;;;;;;;14.48;9.15;;;-1.60;99.90;;;;;;5052355;28;20509;-75
2021/12/27 01:31:05;;;;;;;17.35;11.15;;;-1.60;99.90;;;;;;5052520;28;20056;-75
2021/12/27 01:33:31;;;;;;;15.65;9.82;;;-1.60;99.90;;;;;;5060289;28;20058;-74
2021/12/27 01:35:58;;;;;;;16.92;9.60;;;-1.50;99.90;;;;;;5072394;28;20056;-75
2021/12/27 01:38:24;;;;;;;15.88;9.75;;;-1.50;99.90;;;;;;5072683;28;20048;-75
2021/12/27 01:40:52;;;;;;;19.38;10.18;;;-1.50;99.90;;;;;;5055308;28;20084;-75
2021/12/27 01:43:22;;;;;;;16.45;10.40;;;-1.50;99.90;;;;;;5072272;28;20051;-75
2021/12/27 01:45:54;;;;;;;14.60;9.52;;;-1.50;99.90;;;;;;5072412;28;20046;-75
2021/12/27 01:48:24;;;;;;;15.63;9.60;;;-1.50;99.90;;;;;;5090204;28;20040;-75
2021/12/27 01:50:54;;;;;;;18.10;10.35;;;-1.50;99.90;;;;;;5071807;28;20052;-75
2021/12/27 01:53:22;;;;;;;15.43;10.27;;;-1.50;99.90;;;;;;5089846;28;20056;-75
2021/12/27 01:55:48;;;;;;;17.25;10.40;;;-1.50;99.90;;;;;;5090304;28;20040;-75
2021/12/27 01:58:14;;;;;;;17.63;10.70;;;-1.50;99.90;;;;;;5071324;28;20134;-75
2021/12/27 02:00:44;;;;;;;16.52;10.32;;;-1.50;99.90;;;;;;5071949;28;20048;-75
2021/12/27 02:03:12;;;;;;;20.67;11.52;;;-1.40;99.90;;;;;;5071615;28;20047;-75
2021/12/27 02:05:38;;;;;;;17.15;9.90;;;-1.40;99.90;;;;;;5072106;28;20269;-75
2021/12/27 02:08:04;;;;;;;17.70;10.32;;;-1.40;99.90;;;;;;5071531;28;20056;-75
2021/12/27 02:10:30;;;;;;;18.38;11.23;;;-1.40;99.90;;;;;;5071854;28;20055;-75
2021/12/27 02:12:56;;;;;;;18.52;11.38;;;-1.30;99.90;;;;;;5072497;28;20490;-75
2021/12/27 02:15:21;;;;;;;17.42;10.05;;;-1.30;99.90;;;;;;5055901;28;20052;-75
2021/12/27 02:17:47;;;;;;;17.30;10.50;;;-1.30;99.90;;;;;;5055728;28;20033;-75
2021/12/27 02:20:19;;;;;;;16.40;10.40;;;-1.30;99.90;;;;;;5072431;28;20043;-75
2021/12/27 02:22:46;;;;;;;18.20;10.88;;;-1.30;99.90;;;;;;5090560;28;20093;-75
2021/12/27 02:25:12;;;;;;;18.60;10.80;;;-1.30;99.90;;;;;;5072149;28;20120;-75
2021/12/27 02:27:39;;;;;;;17.98;10.93;;;-1.30;99.90;;;;;;5072533;28;20048;-75
2021/12/27 02:30:07;;;;;;;17.52;10.82;;;-1.30;99.90;;;;;;5072279;28;20048;-75
2021/12/27 02:32:43;;;;;;;18.98;11.68;;;-1.30;99.90;;;;;;5072051;28;20075;-75
2021/12/27 02:35:13;;;;;;;17.42;10.48;;;-1.20;99.90;;;;;;5051802;28;20092;-75
2021/12/27 02:37:39;;;;;;;15.95;10.38;;;-1.20;99.90;;;;;;5052057;28;20465;-75
2021/12/27 02:40:05;;;;;;;19.77;10.65;;;-1.30;99.90;;;;;;5052103;28;20041;-75
2021/12/27 02:42:30;;;;;;;18.05;11.10;;;-1.20;99.90;;;;;;5052381;28;20407;-75
2021/12/27 02:44:56;;;;;;;16.88;10.65;;;-1.20;99.90;;;;;;5058038;28;20044;-74
2021/12/27 02:47:22;;;;;;;17.58;11.38;;;-1.20;99.90;;;;;;5044433;28;20114;-75
2021/12/27 02:49:47;;;;;;;18.55;10.82;;;-1.20;99.90;;;;;;5042197;28;20040;-75
2021/12/27 02:52:13;;;;;;;20.00;11.38;;;-1.20;99.90;;;;;;5071449;28;20078;-75
2021/12/27 02:54:42;;;;;;;18.42;11.13;;;-1.20;99.90;;;;;;5059597;28;20458;-75
2021/12/27 02:57:09;;;;;;;18.02;11.07;;;-1.20;99.90;;;;;;5051629;28;20048;-75
2021/12/27 02:59:35;;;;;;;18.15;11.70;;;-1.20;99.90;;;;;;5035440;28;20410;-75
2021/12/27 03:02:01;;;;;;;17.40;11.05;;;-1.20;99.90;;;;;;5054080;28;20097;-75
2021/12/27 03:04:27;;;;;;;17.17;11.95;;;-1.20;99.90;;;;;;5055144;28;20040;-75
2021/12/27 03:06:52;;;;;;;21.92;12.65;;;-1.10;99.90;;;;;;5071748;28;20125;-75
2021/12/27 03:09:18;;;;;;;18.15;12.88;;;-1.10;99.90;;;;;;5054863;28;20044;-75
2021/12/27 03:11:43;;;;;;;22.40;13.68;;;-1.10;99.90;;;;;;5072111;28;20043;-75
2021/12/27 03:14:09;;;;;;;18.70;12.07;;;-1.10;99.90;;;;;;5071854;28;20131;-75
2021/12/27 03:16:35;;;;;;;19.42;11.88;;;-1.10;99.90;;;;;;5071429;28;20150;-75
2021/12/27 03:19:00;;;;;;;23.33;13.15;;;-1.00;99.90;;;;;;5069361;28;20418;-75
2021/12/27 03:21:27;;;;;;;20.10;11.55;;;-1.00;99.90;;;;;;5034232;28;20159;-75
2021/12/27 03:23:52;;;;;;;18.85;11.80;;;-1.00;99.90;;;;;;5050668;28;20102;-75
2021/12/27 03:26:18;;;;;;;20.10;11.60;;;-1.00;99.90;;;;;;5050319;28;20454;-76
2021/12/27 03:28:44;;;;;;;18.30;12.10;;;-1.00;99.90;;;;;;5050084;28;20525;-75
2021/12/27 03:31:11;;;;;;;23.73;13.35;;;-1.00;99.90;;;;;;5050555;28;20067;-75
2021/12/27 03:33:37;;;;;;;22.10;12.32;;;-1.00;99.90;;;;;;5033748;28;20121;-75
2021/12/27 03:36:05;;;;;;;17.70;11.48;;;-1.00;99.90;;;;;;5050671;28;20075;-75
2021/12/27 03:38:35;;;;;;;20.80;12.70;;;-0.90;99.90;;;;;;5034815;28;20832;-75
2021/12/27 03:41:03;;;;;;;19.35;12.60;;;-0.90;99.90;;;;;;5068863;28;20048;-75
2021/12/27 03:43:28;;;;;;;23.20;13.90;;;-0.90;99.90;;;;;;5051623;28;20525;-76
2021/12/27 03:45:54;;;;;;;21.15;12.23;;;-0.90;99.90;;;;;;5068908;28;20048;-75
2021/12/27 03:48:20;;;;;;;19.67;12.30;;;-0.90;99.90;;;;;;5051307;28;20098;-75
2021/12/27 03:50:45;;;;;;;19.27;12.52;;;-0.90;99.90;;;;;;5051126;28;20102;-75
2021/12/27 03:53:11;;;;;;;21.08;13.57;;;-0.90;99.90;;;;;;5053393;28;20044;-75
2021/12/27 03:55:37;;;;;;;20.50;12.60;;;-0.80;99.90;;;;;;5071514;28;20083;-75
2021/12/27 03:58:09;;;;;;;17.88;9.88;;;-0.80;99.90;;;;;;5071086;28;20051;-75
2021/12/27 04:03:33;;;;;;;21.95;13.32;;;-0.80;99.90;;;;;;5052836;28;20055;-75
2021/12/27 04:05:59;;;;;;;22.50;12.52;;;-0.80;99.90;;;;;;5071087;28;20378;-75
2021/12/27 04:08:25;;;;;;;21.90;13.35;;;-0.80;99.90;;;;;;5070738;28;20083;-75
2021/12/27 04:10:51;;;;;;;20.75;13.18;;;-0.80;99.90;;;;;;5089474;28;20044;-75
2021/12/27 04:13:21;;;;;;;23.23;14.45;;;-0.70;99.90;;;;;;5070816;28;20090;-76
2021/12/27 04:15:48;;;;;;;24.80;15.43;;;-0.70;99.90;;;;;;5089256;28;20150;-75
2021/12/27 04:18:14;;;;;;;23.58;14.13;;;-0.70;99.90;;;;;;5070627;28;20048;-76
2021/12/27 04:20:40;;;;;;;21.25;13.25;;;-0.70;99.90;;;;;;5089153;28;20044;-75
2021/12/27 04:23:07;;;;;;;23.95;13.57;;;-0.70;99.90;;;;;;5089045;28;20402;-75
2021/12/27 04:25:33;;;;;;;22.35;13.30;;;-0.70;99.90;;;;;;5088568;28;20040;-75
2021/12/27 04:27:58;;;;;;;22.73;14.13;;;-0.70;99.90;;;;;;5070789;28;20394;-75
2021/12/27 04:30:24;;;;;;;23.52;14.38;;;-0.70;99.90;;;;;;5089043;28;20083;-75
2021/12/27 04:32:50;;;;;;;21.30;14.27;;;-0.70;99.90;;;;;;5071004;28;20047;-76
2021/12/27 04:35:17;;;;;;;19.92;13.75;;;-0.70;99.90;;;;;;5070499;28;20498;-75
2021/12/27 04:37:44;;;;;;;24.05;14.55;;;-0.60;99.90;;;;;;5088743;28;20048;-75
2021/12/27 04:40:11;;;;;;;25.38;16.10;;;-0.60;99.90;;;;;;5091503;28;20517;-75
2021/12/27 04:42:39;;;;;;;21.13;13.15;;;-0.60;99.90;;;;;;5091894;28;20132;-75
2021/12/27 04:45:06;;;;;;;19.55;13.43;;;-0.60;99.90;;;;;;5074591;28;20126;-75
2021/12/27 04:47:32;;;;;;;19.50;13.52;;;-0.60;99.90;;;;;;5074416;28;20149;-75
2021/12/27 04:49:57;;;;;;;23.80;14.63;;;-0.60;99.90;;;;;;5073863;28;20494;-75
2021/12/27 04:52:23;;;;;;;21.15;15.40;;;-0.60;99.90;;;;;;5074370;28;20052;-75
2021/12/27 04:54:49;;;;;;;21.33;13.75;;;-0.60;99.90;;;;;;5058370;28;20487;-75
2021/12/27 04:57:14;;;;;;;24.50;14.20;;;-0.50;99.90;;;;;;5037346;28;20052;-75
2021/12/27 04:59:40;;;;;;;23.17;14.50;;;-0.50;99.90;;;;;;5071646;28;20135;-76
2021/12/27 05:02:05;;;;;;;21.23;13.43;;;-0.50;99.90;;;;;;5053663;28;20052;-75
2021/12/27 05:04:31;;;;;;;23.85;14.52;;;-0.50;99.90;;;;;;5053951;28;20033;-75
2021/12/27 05:06:57;;;;;;;22.60;14.45;;;-0.50;99.90;;;;;;5071129;28;20182;-75
2021/12/27 05:09:23;;;;;;;23.25;14.52;;;-0.50;99.90;;;;;;5053759;28;20059;-75
2021/12/27 05:11:48;;;;;;;23.50;15.60;;;-0.40;99.90;;;;;;5053656;28;20444;-75
2021/12/27 05:14:15;;;;;;;22.00;14.15;;;-0.40;99.90;;;;;;5071481;28;20852;-75
2021/12/27 05:16:41;;;;;;;23.00;14.70;;;-0.40;99.90;;;;;;5053156;28;20078;-75
2021/12/27 05:19:06;;;;;;;21.88;13.85;;;-0.40;99.90;;;;;;5053395;28;20087;-75
2021/12/27 05:21:32;;;;;;;24.77;15.27;;;-0.40;99.90;;;;;;5053801;28;20090;-75
2021/12/27 05:23:58;;;;;;;23.13;13.98;;;-0.40;99.90;;;;;;5053705;28;20036;-76
2021/12/27 05:26:23;;;;;;;25.30;15.02;;;-0.40;99.90;;;;;;5053242;28;20115;-76
2021/12/27 05:28:49;;;;;;;23.55;14.68;;;-0.30;99.90;;;;;;5053334;28;20036;-76
2021/12/27 05:31:15;;;;;;;23.88;15.02;;;-0.30;99.90;;;;;;5052873;28;20048;-76
2021/12/27 05:33:41;;;;;;;24.60;15.45;;;-0.30;99.90;;;;;;5071171;28;20040;-75
2021/12/27 05:36:06;;;;;;;27.02;16.15;;;-0.30;99.90;;;;;;5053138;28;20055;-75
2021/12/27 05:38:32;;;;;;;23.67;14.40;;;-0.20;99.90;;;;;;5053209;28;20441;-76
2021/12/27 05:40:57;;;;;;;24.42;14.43;;;-0.30;99.90;;;;;;5053203;28;20049;-76
2021/12/27 05:43:24;;;;;;;25.85;15.13;;;-0.30;99.90;;;;;;5035798;28;20084;-75
2021/12/27 05:45:50;;;;;;;24.27;15.63;;;-0.30;99.90;;;;;;5071102;28;20624;-76
2021/12/27 05:48:16;;;;;;;23.95;14.18;;;-0.20;99.90;;;;;;5053295;28;20056;-76
2021/12/27 05:50:43;;;;;;;24.33;14.30;;;-0.30;99.90;;;;;;5052340;28;20430;-76
2021/12/27 05:53:08;;;;;;;23.63;15.00;;;-0.30;99.90;;;;;;5054475;28;20052;-75
2021/12/27 05:55:34;;;;;;;22.02;14.43;;;-0.20;99.90;;;;;;5073199;28;20044;-76
2021/12/27 05:58:00;;;;;;;21.85;14.60;;;-0.20;99.90;;;;;;5072744;28;20047;-76
2021/12/27 06:00:26;;;;;;;25.48;16.60;;;-0.30;99.90;;;;;;5055682;28;20051;-76
2021/12/27 06:02:53;;;;;;;24.58;15.50;;;-0.20;99.90;;;;;;5072168;28;20040;-76
2021/12/27 06:05:19;;;;;;;22.33;14.40;;;-0.20;99.90;;;;;;5071499;28;20055;-76
2021/12/27 06:07:45;;;;;;;24.60;16.08;;;-0.30;99.90;;;;;;5071620;28;20056;-76
2021/12/27 06:10:11;;;;;;;25.60;16.38;;;-0.30;99.90;;;;;;5054608;28;20048;-74
2021/12/27 06:12:38;;;;;;;24.55;16.63;;;-0.30;99.90;;;;;;5055081;28;20379;-74
2021/12/27 06:15:04;;;;;;;24.77;15.10;;;-0.20;99.90;;;;;;5071028;28;20097;-74
2021/12/27 06:17:31;;;;;;;23.92;15.88;;;-0.30;99.90;;;;;;5071953;28;20376;-74
2021/12/27 06:19:58;;;;;;;26.30;16.00;;;-0.20;99.90;;;;;;5089621;28;20694;-74
2021/12/27 06:22:24;;;;;;;27.17;18.00;;;-0.30;99.90;;;;;;5071588;28;20044;-74
2021/12/27 06:24:50;;;;;;;24.13;15.45;;;-0.30;99.90;;;;;;5070851;28;20407;-74
2021/12/27 06:27:16;;;;;;;25.10;15.57;;;-0.20;99.90;;;;;;5089201;28;20198;-73
2021/12/27 06:29:41;;;;;;;27.20;15.23;;;-0.20;99.90;;;;;;5071508;28;20048;-74
2021/12/27 06:32:13;;;;;;;24.17;15.20;;;-0.30;99.90;;;;;;5071135;28;20044;-73
2021/12/27 06:34:40;;;;;;;23.95;15.88;;;-0.30;99.90;;;;;;5071110;28;20055;-74
2021/12/27 06:37:06;;;;;;;25.23;14.93;;;-0.20;99.90;;;;;;5070922;28;20044;-74
2021/12/27 06:39:32;;;;;;;24.60;16.77;;;-0.20;99.90;;;;;;5071290;28;20094;-74
2021/12/27 06:41:57;;;;;;;24.70;14.88;;;-0.20;99.90;;;;;;5088801;28;20083;-73
2021/12/27 06:44:23;;;;;;;26.90;16.25;;;-0.20;99.90;;;;;;5071322;28;20047;-73
2021/12/27 06:46:49;;;;;;;26.30;15.63;;;-0.20;99.90;;;;;;5076692;28;20048;-73
2021/12/27 06:49:15;;;;;;;24.58;16.63;;;-0.20;99.90;;;;;;5066000;28;20044;-74
2021/12/27 06:51:40;;;;;;;24.98;15.05;;;-0.20;99.90;;;;;;5051565;28;20051;-74
2021/12/27 06:54:06;;;;;;;24.92;15.60;;;-0.20;99.90;;;;;;5060537;28;20422;-72
2021/12/27 06:56:31;;;;;;;24.42;16.02;;;-0.20;99.90;;;;;;5089443;28;20050;-71
2021/12/27 06:58:58;;;;;;;24.73;15.13;;;-0.20;99.90;;;;;;5066259;28;20056;-72
2021/12/27 07:01:24;;;;;;;25.05;16.70;;;-0.20;99.90;;;;;;5066469;28;20044;-72
2021/12/27 07:03:50;;;;;;;25.58;15.23;;;-0.20;99.90;;;;;;5070318;28;20505;-72
2021/12/27 07:06:16;;;;;;;26.40;16.30;;;-0.20;99.90;;;;;;5070851;28;20044;-73
2021/12/27 07:08:42;;;;;;;25.63;16.50;;;-0.20;99.90;;;;;;5070760;28;20078;-73
2021/12/27 07:11:07;;;;;;;28.20;16.13;;;-0.20;99.90;;;;;;5088613;28;20155;-73
2021/12/27 07:13:36;;;;;;;28.67;17.08;;;-0.20;99.90;;;;;;5070134;28;20044;-73
2021/12/27 07:16:02;;;;;;;28.20;16.33;;;-0.20;99.90;;;;;;5070663;28;20161;-73
2021/12/27 07:18:27;;;;;;;26.92;16.77;;;-0.20;99.90;;;;;;5088491;28;20154;-74
2021/12/27 07:20:53;;;;;;;26.52;17.25;;;-0.10;99.90;;;;;;5071074;28;20486;-75
2021/12/27 07:23:19;;;;;;;26.45;17.52;;;-0.20;99.90;;;;;;5070022;28;20043;-75
2021/12/27 07:25:45;;;;;;;31.15;16.98;;;-0.20;99.90;;;;;;5070785;28;20058;-75
2021/12/27 07:28:11;;;;;;;26.35;16.98;;;-0.10;99.90;;;;;;5053547;28;20040;-75
2021/12/27 07:30:37;;;;;;;30.08;17.25;;;-0.10;99.90;;;;;;5070573;28;20040;-75
2021/12/27 07:33:02;;;;;;;29.63;17.75;;;-0.10;99.90;;;;;;5070022;28;20079;-75
2021/12/27 07:35:28;;;;;;;29.25;16.67;;;-0.10;99.90;;;;;;5088604;28;20518;-75
2021/12/27 07:37:54;;;;;;;33.45;17.88;;;-0.10;99.90;;;;;;5070296;28;20047;-75
2021/12/27 07:40:20;;;;;;;30.55;17.35;;;-0.10;99.90;;;;;;5053800;28;20422;-75
2021/12/27 07:42:45;;;;;;;33.08;17.85;;;-0.10;99.90;;;;;;5070332;28;20048;-75
2021/12/27 07:45:11;;;;;;;31.17;17.23;;;-0.10;99.90;;;;;;5070338;28;20060;-75
2021/12/27 07:47:37;;;;;;;30.92;17.42;;;0.00;99.90;;;;;;5088764;28;20152;-75
2021/12/27 07:50:05;;;;;;;38.05;25.73;;;0.00;99.90;;;;;;5051908;28;20477;-75
2021/12/27 07:52:31;;;;;;;41.87;27.03;;;0.00;99.90;;;;;;5068751;28;20763;-75
2021/12/27 07:54:56;;;;;;;43.40;29.10;;;-0.10;99.90;;;;;;5051824;28;20427;-75
2021/12/27 07:57:22;;;;;;;39.42;21.23;;;-0.10;99.90;;;;;;5050219;28;20680;-75
2021/12/27 07:59:49;;;;;;;43.78;28.35;;;-0.10;99.90;;;;;;5048341;28;20404;-75
2021/12/27 08:02:16;;;;;;;41.90;27.80;;;0.00;99.90;;;;;;5049706;28;20422;-75
2021/12/27 08:04:42;;;;;;;41.97;28.05;;;0.00;99.90;;;;;;5049892;28;20404;-75
2021/12/27 08:07:07;;;;;;;37.80;22.13;;;-0.10;99.90;;;;;;5050797;28;20506;-75
2021/12/27 08:09:33;;;;;;;41.90;20.42;;;0.00;99.90;;;;;;5051041;28;20063;-75
2021/12/27 08:11:59;;;;;;;37.60;20.55;;;0.00;99.90;;;;;;5068088;28;20044;-75
2021/12/27 08:14:25;;;;;;;36.83;20.95;;;0.00;99.90;;;;;;5054105;28;20099;-75
2021/12/27 08:16:50;;;;;;;38.15;19.95;;;0.00;99.90;;;;;;5054723;28;20100;-75
2021/12/27 08:19:16;;;;;;;37.58;20.15;;;0.00;99.90;;;;;;5054279;28;20091;-75
2021/12/27 08:21:42;;;;;;;42.88;22.33;;;0.00;99.90;;;;;;5053495;28;20037;-75
2021/12/27 08:24:08;;;;;;;43.25;21.35;;;0.00;99.90;;;;;;5053655;28;20044;-75
2021/12/27 08:26:34;;;;;;;48.60;28.55;;;0.00;99.90;;;;;;5052174;28;20482;-75
2021/12/27 08:29:03;;;;;;;46.50;29.10;;;0.00;99.90;;;;;;5052096;28;20495;-76
2021/12/27 08:31:29;;;;;;;45.47;29.07;;;0.00;99.90;;;;;;5052132;28;20426;-75
2021/12/27 08:33:54;;;;;;;44.50;27.87;;;0.00;99.90;;;;;;5052203;28;20801;-75
2021/12/27 08:36:20;;;;;;;43.38;28.17;;;0.10;99.90;;;;;;5052080;28;20983;-75
2021/12/27 08:38:48;;;;;;;44.17;27.42;;;0.10;99.90;;;;;;5052111;28;20404;-75
2021/12/27 08:41:15;;;;;;;42.45;27.85;;;0.10;99.90;;;;;;5052206;28;20936;-76
2021/12/27 08:43:42;;;;;;;40.10;26.38;;;0.10;99.90;;;;;;5035446;28;20400;-76
2021/12/27 08:46:08;;;;;;;41.22;27.40;;;0.10;99.90;;;;;;5051459;28;20458;-76
2021/12/27 08:48:34;;;;;;;39.72;27.52;;;0.20;99.90;;;;;;5051938;28;20420;-75
2021/12/27 08:51:00;;;;;;;35.30;21.48;;;0.20;99.90;;;;;;5053206;28;20107;-76
2021/12/27 08:53:26;;;;;;;33.72;19.45;;;0.20;99.90;;;;;;5052625;28;20418;-75
2021/12/27 08:55:52;;;;;;;34.83;19.67;;;0.20;99.90;;;;;;5053517;28;20102;-75
2021/12/27 08:58:18;;;;;;;34.22;19.33;;;0.20;99.90;;;;;;5052949;28;20510;-75
2021/12/27 09:00:43;;;;;;;36.75;20.67;;;0.20;99.90;;;;;;5053231;28;20453;-75
2021/12/27 09:03:12;;;;;;;36.55;20.80;;;0.20;99.90;;;;;;5053593;28;20044;-76
2021/12/27 09:05:39;;;;;;;33.08;19.75;;;0.20;99.90;;;;;;5053822;28;20048;-75
2021/12/27 09:08:05;;;;;;;41.45;22.50;;;0.30;99.90;;;;;;5053255;28;20049;-75
2021/12/27 09:10:31;;;;;;;42.38;20.77;;;0.30;99.90;;;;;;5053537;28;20048;-75
2021/12/27 09:12:56;;;;;;;42.90;21.92;;;0.30;99.90;;;;;;5036993;28;20068;-75
2021/12/27 09:15:22;;;;;;;43.80;21.27;;;0.30;99.90;;;;;;5053421;28;20139;-76
2021/12/27 09:17:48;;;;;;;48.90;29.42;;;0.30;99.90;;;;;;5069908;28;20469;-75
2021/12/27 09:20:13;;;;;;;46.00;29.53;;;0.30;99.90;;;;;;5051508;28;20406;-75
2021/12/27 09:22:40;;;;;;;51.53;31.50;;;0.30;99.90;;;;;;5052469;28;20457;-76
2021/12/27 09:25:06;;;;;;;38.15;22.23;;;0.30;99.90;;;;;;5070553;28;20048;-76
2021/12/27 09:27:31;;;;;;;41.53;21.45;;;0.30;99.90;;;;;;5052990;28;20452;-75
2021/12/27 09:29:57;;;;;;;40.13;21.63;;;0.40;99.90;;;;;;5036050;28;20049;-76
2021/12/27 09:32:23;;;;;;;38.53;20.33;;;0.40;99.90;;;;;;5052938;28;20821;-76
2021/12/27 09:34:50;;;;;;;38.17;20.25;;;0.40;99.90;;;;;;5036199;28;20054;-76
2021/12/27 09:37:16;;;;;;;35.88;20.70;;;0.40;99.90;;;;;;5036193;28;20084;-75
2021/12/27 09:39:42;;;;;;;41.72;21.08;;;0.40;99.90;;;;;;5052894;28;20477;-75
2021/12/27 09:42:07;;;;;;;36.25;20.45;;;0.40;99.90;;;;;;5053175;28;20513;-76
2021/12/27 09:44:33;;;;;;;40.53;21.38;;;0.40;99.90;;;;;;5053113;28;20049;-76
2021/12/27 09:46:59;;;;;;;38.40;20.80;;;0.40;99.90;;;;;;5036473;28;20045;-76
2021/12/27 09:49:29;;;;;;;40.15;20.95;;;0.50;99.90;;;;;;5036618;28;20500;-76
2021/12/27 09:51:57;;;;;;;38.00;20.38;;;0.50;99.90;;;;;;5053253;28;20048;-75
2021/12/27 09:54:26;;;;;;;39.17;21.30;;;0.60;99.90;;;;;;5064969;28;20051;-76
2021/12/27 09:56:52;;;;;;;38.42;20.80;;;0.60;99.90;;;;;;5073032;28;20040;-76
2021/12/27 09:59:18;;;;;;;39.92;21.65;;;0.60;99.90;;;;;;5056100;28;20066;-76
2021/12/27 10:01:44;;;;;;;34.50;19.45;;;0.60;99.90;;;;;;5073192;28;20048;-76
2021/12/27 10:04:09;;;;;;;37.20;21.45;;;0.60;99.90;;;;;;5056007;28;20051;-76
2021/12/27 10:06:35;;;;;;;35.65;20.45;;;0.70;99.90;;;;;;5072652;28;20051;-76
2021/12/27 10:09:05;;;;;;;38.22;20.20;;;0.70;99.90;;;;;;5072415;28;20052;-76
2021/12/27 10:11:36;;;;;;;36.83;21.10;;;0.70;99.90;;;;;;5073040;28;20439;-76
2021/12/27 10:14:21;;;;;;;37.40;20.95;;;0.70;99.90;;;;;;5072215;28;20044;-76
2021/12/27 10:16:54;;;;;;;36.38;20.15;;;0.70;99.90;;;;;;5072655;28;20048;-76
2021/12/27 10:19:22;;;;;;;37.97;19.70;;;0.70;99.90;;;;;;5055571;28;20051;-76
2021/12/27 10:21:50;;;;;;;41.65;29.67;;;0.70;99.90;;;;;;5054753;28;20457;-76
2021/12/27 10:24:27;;;;;;;47.97;30.97;;;0.70;99.90;;;;;;5070910;28;20911;-76
2021/12/27 10:26:54;;;;;;;49.95;34.10;;;0.70;99.90;;;;;;5070949;28;20436;-76
2021/12/27 10:29:23;;;;;;;45.13;31.33;;;0.70;99.90;;;;;;5070909;28;20402;-76
2021/12/27 10:32:09;;;;;;;48.60;32.65;;;0.70;99.90;;;;;;5070903;28;20437;-76
2021/12/27 10:34:40;;;;;;;43.78;29.73;;;0.70;99.90;;;;;;5054246;28;20422;-76
2021/12/27 10:37:27;;;;;;;45.00;30.17;;;0.70;99.90;;;;;;5069917;28;21185;-76
2021/12/27 10:39:57;;;;;;;43.63;29.92;;;0.80;99.90;;;;;;5070228;28;20831;-76
2021/12/27 10:42:33;;;;;;;44.20;29.52;;;0.80;99.90;;;;;;5088982;28;20864;-76
2021/12/27 10:45:02;;;;;;;45.20;30.83;;;0.80;99.90;;;;;;5053928;28;20497;-76
2021/12/27 10:47:32;;;;;;;48.88;31.45;;;0.80;99.90;;;;;;5070717;28;20413;-76
2021/12/27 10:50:05;;;;;;;41.40;23.63;;;0.80;99.90;;;;;;5071894;28;20062;-76
2021/12/27 10:52:43;;;;;;;40.60;23.20;;;0.80;99.90;;;;;;5071872;28;20075;-77
2021/12/27 10:55:09;;;;;;;43.08;21.88;;;0.80;99.90;;;;;;5053200;28;20048;-76
2021/12/27 10:57:34;;;;;;;45.55;22.70;;;0.90;99.90;;;;;;5052041;28;20524;-76
2021/12/27 11:00:27;;;;;;;46.75;23.52;;;0.90;99.90;;;;;;5034747;28;20816;-76
2021/12/27 11:02:54;;;;;;;49.03;23.83;;;0.90;99.90;;;;;;5051823;28;20406;-76
2021/12/27 11:05:25;;;;;;;52.00;24.42;;;0.90;99.90;;;;;;5051961;28;20380;-76
2021/12/27 11:07:52;;;;;;;46.65;23.92;;;0.90;99.90;;;;;;5069564;28;20056;-76
2021/12/27 11:10:20;;;;;;;48.00;23.35;;;1.00;99.90;;;;;;5051653;28;20047;-76
2021/12/27 11:12:47;;;;;;;48.30;22.05;;;1.00;99.90;;;;;;5051520;28;20049;-77
2021/12/27 11:15:13;;;;;;;50.70;24.80;;;1.10;99.90;;;;;;5051488;28;20466;-76
2021/12/27 11:17:40;;;;;;;50.63;25.48;;;1.10;99.90;;;;;;5050497;28;20084;-76
2021/12/27 11:20:08;;;;;;;55.17;24.77;;;1.20;99.90;;;;;;5050627;28;20085;-76
2021/12/27 11:22:40;;;;;;;53.33;25.52;;;1.20;99.90;;;;;;5050555;28;20090;-76
2021/12/27 11:25:19;;;;;;;57.22;25.50;;;1.20;99.90;;;;;;5033914;28;20040;-76
2021/12/27 11:27:46;;;;;;;54.75;26.45;;;1.30;99.90;;;;;;5050661;28;20051;-76
2021/12/27 11:30:13;;;;;;;56.65;26.15;;;1.30;99.90;;;;;;5050170;28;20418;-76
2021/12/27 11:33:06;;;;;;;50.00;24.73;;;1.40;99.90;;;;;;5033810;28;20048;-76
2021/12/27 11:35:34;;;;;;;;;;;1.40;99.90;;;;;;5050884;28;20041;-76
2021/12/27 11:38:01;;;;;;;;;;;1.50;99.90;;;;;;5050757;28;19927;-77
2021/12/27 11:40:38;;;;;;;;;;;1.50;99.90;;;;;;5051124;28;20380;-77
2021/12/27 11:43:05;;;;;;;;;;;1.50;99.90;;;;;;5068923;28;19928;-76
2021/12/27 11:45:36;;;;;;;;;;;1.60;99.90;;;;;;5050872;28;19927;-77
2021/12/27 11:48:10;;;;;;;;;;;1.60;99.90;;;;;;5052630;28;19927;-77
2021/12/27 11:50:54;;;;;;;;;;;1.60;99.90;;;;;;5072621;28;19955;-77
2021/12/27 11:53:31;;;;;;;;;;;1.70;99.90;;;;;;5059003;28;20121;-76
2021/12/27 11:55:57;;;;;;;;;;;1.70;99.90;;;;;;5075313;28;20035;-76
2021/12/27 11:58:29;;;;;;;;;;;1.70;99.90;;;;;;5075951;28;20434;-76
2021/12/27 12:00:55;;;;;;;;;;;1.70;99.90;;;;;;5075913;28;20328;-74
2021/12/27 12:03:34;;;;;;;;;;;1.70;99.90;;;;;;5075545;28;19920;-74
2021/12/27 12:05:59;;;;;;;;;;;1.70;99.90;;;;;;5075494;28;20018;-76
2021/12/27 12:08:28;;;;;;;;;;;1.60;99.90;;;;;;5072025;28;19999;-76
2021/12/27 12:10:58;;;;;;;;;;;1.60;99.90;;;;;;5071997;28;19998;-75
2021/12/27 12:13:26;;;;;;;;;;;1.50;99.90;;;;;;5072088;28;20275;-75
2021/12/27 12:15:57;;;;;;;;;;;1.50;99.90;;;;;;5055308;28;19928;-75
2021/12/27 12:18:23;;;;;;;;;;;1.50;99.90;;;;;;5071925;28;19924;-75
2021/12/27 12:20:48;;;;;;;;;;;1.50;99.90;;;;;;5072083;28;19935;-75
2021/12/27 12:23:14;;;;;;;;;;;1.50;99.90;;;;;;5072176;28;19924;-75
2021/12/27 12:25:40;;;;;;;;;;;1.50;99.90;;;;;;5071246;28;19921;-75
2021/12/27 12:28:10;;;;;;;;;;;1.50;99.90;;;;;;5055101;28;19955;-75
2021/12/27 12:30:37;;;;;;;;;;;1.50;99.90;;;;;;5071654;28;20054;-75
2021/12/27 12:33:08;;;;;;;;;;;1.50;99.90;;;;;;5071885;28;20294;-75
2021/12/27 12:35:38;;;;;;;;;;;1.50;99.90;;;;;;5054685;28;20393;-75
2021/12/27 12:38:15;;;;;;;;;;;1.50;99.90;;;;;;5072004;28;20298;-75
2021/12/27 12:40:42;;;;;;;;;;;1.50;99.90;;;;;;5072698;28;19967;-75
2021/12/27 12:43:07;;;;;;;;;;;1.50;99.90;;;;;;5071663;28;19920;-75